createdAt,value
2022-11-04T00:02:05.436Z,99532.16
2022-11-04T00:04:32.051Z,99533.00
2022-11-04T00:06:58.660Z,99537.56
2022-11-04T00:09:30.321Z,99541.16
2022-11-04T00:12:16.341Z,99532.34
2022-11-04T00:14:43.003Z,99535.84
2022-11-04T00:17:22.907Z,99533.28
2022-11-04T00:20:10.496Z,99549.84
2022-11-04T00:22:56.983Z,99551.38
2022-11-04T00:25:42.216Z,99549.56
2022-11-04T00:28:36.401Z,99565.31
2022-11-04T00:31:24.101Z,99563.69
2022-11-04T00:33:52.528Z,99574.22
2022-11-04T00:36:19.587Z,99581.22
2022-11-04T00:38:46.184Z,99574.16
2022-11-04T00:41:28.418Z,99576.84
2022-11-04T00:44:00.555Z,99569.09
2022-11-04T00:46:28.090Z,99582.22
2022-11-04T00:48:55.003Z,99577.91
2022-11-04T00:51:22.282Z,99578.63
2022-11-04T00:53:49.258Z,99583.16
2022-11-04T00:56:15.728Z,99588.44
2022-11-04T00:58:42.432Z,99585.81
2022-11-04T01:01:18.103Z,99596.28
2022-11-04T01:03:46.542Z,99584.78
2022-11-04T01:06:13.027Z,99591.84
2022-11-04T01:08:40.295Z,99602.31
2022-11-04T01:11:08.743Z,99605.34
2022-11-04T01:13:35.905Z,99606.06
2022-11-04T01:16:05.342Z,99618.41
2022-11-04T01:18:31.889Z,99623.66
2022-11-04T01:21:02.897Z,99640.09
2022-11-04T01:23:29.438Z,99626.16
2022-11-04T01:25:56.376Z,99633.16
2022-11-04T01:28:22.897Z,99638.31
2022-11-04T01:30:49.287Z,99637.47
2022-11-04T01:33:15.694Z,99646.94
2022-11-04T01:35:42.106Z,99649.44
2022-11-04T01:38:08.953Z,99657.28
2022-11-04T01:40:37.700Z,99655.41
2022-11-04T01:43:04.299Z,99658.88
2022-11-04T01:45:30.772Z,99659.63
2022-11-04T01:48:04.167Z,99657.97
2022-11-04T01:50:34.470Z,99664.34
2022-11-04T01:53:12.426Z,99659.16
2022-11-04T01:55:51.580Z,99668.72
2022-11-04T01:58:22.756Z,99665.19
2022-11-04T02:00:49.449Z,99667.16
2022-11-04T02:03:20.437Z,99660.09
2022-11-04T02:05:48.253Z,99654.13
2022-11-04T02:08:17.661Z,99657.75
2022-11-04T02:10:56.603Z,99662.19
2022-11-04T02:13:23.104Z,99665.91
2022-11-04T02:16:44.137Z,99660.75
2022-11-04T02:20:01.402Z,99669.69
2022-11-04T02:22:36.866Z,99669.63
2022-11-04T02:25:12.599Z,99662.59
2022-11-04T02:28:13.515Z,99656.56
2022-11-04T02:31:09.722Z,99652.31
2022-11-04T02:33:48.085Z,99653.16
2022-11-04T02:36:39.068Z,99640.91
2022-11-04T02:39:11.207Z,99644.69
2022-11-04T02:41:44.717Z,99647.38
2022-11-04T02:44:20.260Z,99644.88
2022-11-04T02:47:06.857Z,99646.63
2022-11-04T02:49:40.414Z,99646.78
2022-11-04T02:52:09.613Z,99647.59
2022-11-04T02:54:45.933Z,99652.00
2022-11-04T02:57:17.379Z,99663.31
2022-11-04T02:59:55.115Z,99659.19
2022-11-04T03:02:33.737Z,99667.03
2022-11-04T03:05:03.569Z,99663.56
2022-11-04T03:07:34.679Z,99674.16
2022-11-04T03:10:05.997Z,99671.59
2022-11-04T03:12:42.473Z,99669.88
2022-11-04T03:15:17.397Z,99664.75
2022-11-04T03:17:53.490Z,99670.94
2022-11-04T03:20:27.493Z,99658.78
2022-11-04T03:22:59.770Z,99652.81
2022-11-04T03:25:32.406Z,99654.56
2022-11-04T03:28:33.989Z,99649.34
2022-11-04T03:31:05.004Z,99643.34
2022-11-04T03:33:47.744Z,99650.50
2022-11-04T03:36:14.511Z,99652.31
2022-11-04T03:38:40.958Z,99651.59
2022-11-04T03:41:14.005Z,99655.06
2022-11-04T03:43:41.739Z,99657.63
2022-11-04T03:46:08.243Z,99667.22
2022-11-04T03:48:35.158Z,99669.94
2022-11-04T03:51:01.738Z,99676.94
2022-11-04T03:53:30.230Z,99673.47
2022-11-04T03:56:18.588Z,99679.72
2022-11-04T03:58:54.085Z,99672.84
2022-11-04T04:01:49.828Z,99671.88
2022-11-04T04:04:38.881Z,99671.94
2022-11-04T04:07:33.254Z,99666.91
2022-11-04T04:10:40.247Z,99666.00
2022-11-04T04:13:14.163Z,99665.09
2022-11-04T04:15:49.547Z,99673.81
2022-11-04T04:18:23.478Z,99667.75
2022-11-04T04:20:54.212Z,99669.63
2022-11-04T04:23:45.625Z,99675.53
2022-11-04T04:26:33.190Z,99669.63
2022-11-04T04:29:03.025Z,99676.66
2022-11-04T04:31:50.181Z,99668.22
2022-11-04T04:34:34.875Z,99667.38
2022-11-04T04:37:05.635Z,99679.75
2022-11-04T04:40:05.262Z,99670.88
2022-11-04T04:42:53.996Z,99679.56
2022-11-04T04:45:25.452Z,99688.22
2022-11-04T04:47:52.603Z,99681.22
2022-11-04T04:50:21.657Z,99683.84
2022-11-04T04:52:52.217Z,99692.53
2022-11-04T04:55:18.979Z,99692.53
2022-11-04T04:57:45.381Z,99689.91
2022-11-04T05:00:15.255Z,99695.06
2022-11-04T05:02:41.770Z,99689.16
2022-11-04T05:05:08.447Z,99687.34
2022-11-04T05:07:35.078Z,99688.25
2022-11-04T05:10:01.742Z,99695.41
2022-11-04T05:12:48.127Z,99689.41
2022-11-04T05:15:14.646Z,99690.25
2022-11-04T05:17:41.061Z,99694.72
2022-11-04T05:20:08.416Z,99692.28
2022-11-04T05:22:34.803Z,99692.28
2022-11-04T05:25:01.184Z,99702.78
2022-11-04T05:27:27.573Z,99700.34
2022-11-04T05:29:53.965Z,99698.78
2022-11-04T05:32:20.412Z,99692.72
2022-11-04T05:34:48.152Z,99702.50
2022-11-04T05:37:14.534Z,99700.88
2022-11-04T05:39:40.931Z,99706.91
2022-11-04T05:42:07.378Z,99704.47
2022-11-04T05:44:33.774Z,99715.03
2022-11-04T05:47:00.163Z,99710.72
2022-11-04T05:49:26.567Z,99710.63
2022-11-04T05:51:53.088Z,99711.47
2022-11-04T05:54:19.499Z,99717.59
2022-11-04T05:56:45.969Z,99717.69
2022-11-04T05:59:12.353Z,99725.56
2022-11-04T06:01:41.493Z,99723.06
2022-11-04T06:04:13.725Z,99723.00
2022-11-04T06:06:40.342Z,99722.06
2022-11-04T06:09:06.962Z,99723.78
2022-11-04T06:11:35.130Z,99724.78
2022-11-04T06:14:01.998Z,99732.59
2022-11-04T06:16:28.416Z,99736.13
2022-11-04T06:18:55.368Z,99741.38
2022-11-04T06:21:26.319Z,99743.25
2022-11-04T06:23:54.594Z,99747.31
2022-11-04T06:26:25.364Z,99748.06
2022-11-04T06:28:54.723Z,99754.56
2022-11-04T06:31:21.410Z,99762.19
2022-11-04T06:33:48.306Z,99762.09
2022-11-04T06:36:16.181Z,99769.81
2022-11-04T06:38:42.693Z,99773.25
2022-11-04T06:41:13.372Z,99775.59
2022-11-04T06:43:39.965Z,99778.06
2022-11-04T06:46:06.493Z,99782.25
2022-11-04T06:48:33.083Z,99778.72
2022-11-04T06:51:00.630Z,99787.41
2022-11-04T06:53:29.053Z,99789.06
2022-11-04T06:56:02.825Z,99790.88
2022-11-04T06:58:29.314Z,99789.16
2022-11-04T07:00:55.732Z,99781.31
2022-11-04T07:03:22.220Z,99791.06
2022-11-04T07:05:48.852Z,99789.31
2022-11-04T07:08:15.364Z,99797.94
2022-11-04T07:10:42.232Z,99792.63
2022-11-04T07:13:08.826Z,99795.00
2022-11-04T07:15:35.849Z,99803.63
2022-11-04T07:18:02.310Z,99806.28
2022-11-04T07:20:28.799Z,99808.66
2022-11-04T07:22:55.693Z,99813.81
2022-11-04T07:25:22.103Z,99816.22
2022-11-04T07:27:48.564Z,99819.53
2022-11-04T07:30:15.073Z,99819.34
2022-11-04T07:32:41.489Z,99824.75
2022-11-04T07:35:08.342Z,99833.41
2022-11-04T07:37:34.763Z,99833.34
2022-11-04T07:40:01.173Z,99834.09
2022-11-04T07:42:27.561Z,99835.59
2022-11-04T07:44:54.053Z,99843.28
2022-11-04T07:47:20.518Z,99838.81
2022-11-04T07:49:47.044Z,99851.88
2022-11-04T07:52:13.539Z,99857.09
2022-11-04T07:54:39.950Z,99867.44
2022-11-04T07:57:06.555Z,99858.59
2022-11-04T07:59:33.704Z,99875.94
2022-11-04T08:02:00.236Z,99872.47
2022-11-04T08:04:26.893Z,99881.97
2022-11-04T08:06:53.586Z,99877.53
2022-11-04T08:09:20.250Z,99883.56
2022-11-04T08:11:46.800Z,99889.63
2022-11-04T08:14:13.222Z,99884.41
2022-11-04T08:16:39.665Z,99882.59
2022-11-04T08:19:06.188Z,99869.44
2022-11-04T08:21:34.147Z,99876.41
2022-11-04T08:24:03.775Z,99876.31
2022-11-04T08:26:30.480Z,99887.66
2022-11-04T08:28:57.128Z,99879.88
2022-11-04T08:31:26.232Z,99890.22
2022-11-04T08:33:54.590Z,99877.09
2022-11-04T08:36:27.912Z,99881.44
2022-11-04T08:38:54.478Z,99879.66
2022-11-04T08:41:24.563Z,99880.56
2022-11-04T08:43:51.111Z,99888.56
2022-11-04T08:46:18.530Z,99887.81
2022-11-04T08:48:46.206Z,99886.03
2022-11-04T08:51:23.619Z,99888.63
2022-11-04T08:53:50.091Z,99878.06
2022-11-04T08:56:37.487Z,99882.28
2022-11-04T08:59:05.066Z,99882.97
2022-11-04T09:01:36.168Z,99881.16
2022-11-04T09:04:03.771Z,99881.84
2022-11-04T09:06:36.528Z,99886.97
2022-11-04T09:09:07.715Z,99894.59
2022-11-04T09:11:37.302Z,99890.06
2022-11-04T09:14:05.533Z,99891.69
2022-11-04T09:16:34.387Z,99904.66
2022-11-04T09:19:01.832Z,99898.47
2022-11-04T09:21:28.918Z,99890.56
2022-11-04T09:23:55.911Z,99894.88
2022-11-04T09:26:23.609Z,99909.66
2022-11-04T09:28:55.394Z,99900.84
2022-11-04T09:31:22.731Z,99891.22
2022-11-04T09:33:50.355Z,99891.91
2022-11-04T09:36:17.107Z,99885.69
2022-11-04T09:38:43.708Z,99883.88
2022-11-04T09:41:32.457Z,99883.75
2022-11-04T09:44:01.484Z,99883.63
2022-11-04T09:46:32.970Z,99886.88
2022-11-04T09:49:03.032Z,99898.81
2022-11-04T09:51:53.125Z,99896.88
2022-11-04T09:54:22.094Z,99904.72
2022-11-04T09:56:51.327Z,99900.28
2022-11-04T09:59:25.281Z,99897.53
2022-11-04T10:02:24.218Z,99896.50
2022-11-04T10:05:12.098Z,99895.72
2022-11-04T10:08:04.940Z,99893.91
2022-11-04T10:10:37.500Z,99898.16
2022-11-04T10:13:26.241Z,99900.72
2022-11-04T10:16:24.725Z,99901.56
2022-11-04T10:19:22.070Z,99903.22
2022-11-04T10:22:00.588Z,99912.75
2022-11-04T10:24:47.389Z,99916.00
2022-11-04T10:27:21.749Z,99915.13
2022-11-04T10:30:01.732Z,99915.81
2022-11-04T10:32:46.043Z,99905.28
2022-11-04T10:35:21.808Z,99907.88
2022-11-04T10:37:53.570Z,99909.31
2022-11-04T10:40:25.770Z,99917.81
2022-11-04T10:42:53.774Z,99920.06
2022-11-04T10:45:27.022Z,99921.56
2022-11-04T10:47:56.380Z,99925.63
2022-11-04T10:50:38.949Z,99923.69
2022-11-04T10:53:12.633Z,99922.06
2022-11-04T10:55:39.269Z,99933.47
2022-11-04T10:58:18.429Z,99933.66
2022-11-04T11:00:45.033Z,99935.47
2022-11-04T11:03:27.242Z,99937.97
2022-11-04T11:06:09.431Z,99937.94
2022-11-04T11:08:37.370Z,99938.84
2022-11-04T11:11:07.595Z,99947.69
2022-11-04T11:13:40.666Z,99949.44
2022-11-04T11:16:19.780Z,99953.72
2022-11-04T11:19:12.296Z,99957.13
2022-11-04T11:21:50.750Z,99961.38
2022-11-04T11:24:26.677Z,99967.34
2022-11-04T11:26:56.013Z,99969.78
2022-11-04T11:29:31.757Z,99968.84
2022-11-04T11:32:00.813Z,99969.81
2022-11-04T11:34:38.718Z,99973.34
2022-11-04T11:37:22.398Z,99974.22
2022-11-04T11:39:48.845Z,99969.19
2022-11-04T11:42:16.303Z,99970.19
2022-11-04T11:44:48.076Z,99972.91
2022-11-04T11:47:38.120Z,99972.06
2022-11-04T11:50:07.631Z,99973.66
2022-11-04T11:52:38.144Z,99974.31
2022-11-04T11:55:14.480Z,99976.88
2022-11-04T12:00:51.988Z,99978.22
2022-11-04T12:09:49.109Z,99998.09
2022-11-04T12:12:48.329Z,99998.34
2022-11-04T12:15:27.552Z,99996.03
2022-11-04T12:18:20.356Z,99997.00
2022-11-04T12:21:12.949Z,99998.88
2022-11-04T12:24:13.342Z,99994.63
2022-11-04T12:26:46.660Z,99993.72
2022-11-04T12:29:19.626Z,100001.44
2022-11-04T12:32:01.904Z,100000.50
2022-11-04T12:34:47.018Z,100003.97
2022-11-04T12:37:44.797Z,99996.16
2022-11-04T12:40:25.183Z,99992.69
2022-11-04T12:43:07.020Z,99996.16
2022-11-04T12:45:59.817Z,99996.16
2022-11-04T12:48:29.203Z,100001.41
2022-11-04T12:51:21.858Z,99998.28
2022-11-04T12:54:08.711Z,99999.38
2022-11-04T12:56:40.885Z,99987.84
2022-11-04T12:59:29.285Z,99994.56
2022-11-04T13:02:25.342Z,99985.63
2022-11-04T13:04:54.837Z,99989.81
2022-11-04T13:07:33.608Z,99981.38
2022-11-04T13:10:15.657Z,99984.66
2022-11-04T13:12:45.515Z,99986.94
2022-11-04T13:15:24.678Z,99989.38
2022-11-04T13:17:57.841Z,99987.31
2022-11-04T13:20:44.423Z,100003.94
2022-11-04T13:23:24.290Z,100004.22
2022-11-04T13:25:52.514Z,100017.97
2022-11-04T13:28:22.118Z,100011.00
2022-11-04T13:31:16.475Z,100019.66
2022-11-04T13:33:49.038Z,100023.19
2022-11-04T13:36:32.274Z,100021.41
2022-11-04T13:39:06.550Z,100031.25
2022-11-04T13:41:45.303Z,100037.13
2022-11-04T13:44:24.739Z,100027.44
2022-11-04T13:46:54.078Z,100031.91
2022-11-04T13:49:30.631Z,100035.50
2022-11-04T13:52:11.549Z,100039.97
2022-11-04T13:54:41.951Z,100049.34
2022-11-04T13:57:19.058Z,100049.09
2022-11-04T14:00:07.432Z,100053.56
2022-11-04T14:02:50.841Z,100071.06
2022-11-04T14:05:34.762Z,100064.75
2022-11-04T14:08:01.304Z,100076.84
2022-11-04T14:10:49.649Z,100079.63
2022-11-04T14:13:28.565Z,100074.47
2022-11-04T14:16:13.834Z,100084.09
2022-11-04T14:18:44.210Z,100087.75
2022-11-04T14:21:15.041Z,100087.84
2022-11-04T14:23:45.356Z,100094.91
2022-11-04T14:26:14.935Z,100083.66
2022-11-04T14:28:45.257Z,100085.50
2022-11-04T14:31:17.710Z,100098.63
2022-11-04T14:33:54.080Z,100091.66
2022-11-04T14:36:20.632Z,100093.38
2022-11-04T14:39:11.666Z,100096.91
2022-11-04T14:41:41.113Z,100094.25
2022-11-04T14:44:08.880Z,100108.38
2022-11-04T14:46:42.157Z,100111.03
2022-11-04T14:49:38.313Z,100121.59
2022-11-04T14:52:46.247Z,100121.81
2022-11-04T14:55:15.910Z,100125.38
2022-11-04T14:57:54.175Z,100135.09
2022-11-04T15:00:40.738Z,100136.06
2022-11-04T15:06:04.679Z,100153.72
2022-11-04T15:08:37.336Z,100148.47
2022-11-04T15:11:17.387Z,100158.78
2022-11-04T15:13:49.060Z,100157.84
2022-11-04T15:16:28.864Z,100162.13
2022-11-04T15:18:58.592Z,100173.41
2022-11-04T15:21:25.793Z,100175.16
2022-11-04T15:23:53.874Z,100187.41
2022-11-04T15:26:29.150Z,100187.50
2022-11-04T15:28:59.273Z,100197.19
2022-11-04T15:31:32.746Z,100196.47
2022-11-04T15:34:02.284Z,100201.91
2022-11-04T15:36:31.869Z,100201.22
2022-11-04T15:39:02.524Z,100202.06
2022-11-04T15:41:49.643Z,100208.13
2022-11-04T15:44:21.193Z,100207.31
2022-11-04T15:46:52.996Z,100210.00
2022-11-04T15:49:30.090Z,100212.59
2022-11-04T15:52:11.737Z,100218.63
2022-11-04T15:54:44.410Z,100213.44
2022-11-04T15:57:21.455Z,100217.84
2022-11-04T15:59:57.932Z,100226.56
2022-11-04T16:02:33.799Z,100230.25
2022-11-04T16:05:26.557Z,100241.69
2022-11-04T16:07:54.871Z,100248.84
2022-11-04T16:10:33.902Z,100251.41
2022-11-04T16:13:21.410Z,100250.56
2022-11-04T16:15:56.844Z,100253.22
2022-11-04T16:18:35.211Z,100248.13
2022-11-04T16:21:13.369Z,100245.56
2022-11-04T16:23:52.645Z,100250.81
2022-11-04T16:26:25.663Z,100258.63
2022-11-04T16:28:57.083Z,100249.94
2022-11-04T16:31:27.481Z,100263.97
2022-11-04T16:33:54.249Z,100261.38
2022-11-04T16:36:24.832Z,100271.19
2022-11-04T16:39:06.528Z,100275.75
2022-11-04T16:41:36.286Z,100274.03
2022-11-04T16:44:04.262Z,100281.06
2022-11-04T16:46:33.479Z,100281.16
2022-11-04T16:48:59.949Z,100282.91
2022-11-04T16:51:26.488Z,100283.84
2022-11-04T16:53:54.587Z,100294.34
2022-11-04T16:56:24.532Z,100299.72
2022-11-04T16:58:51.959Z,100297.09
2022-11-04T17:01:19.194Z,100299.66
2022-11-04T17:03:45.829Z,100294.56
2022-11-04T17:06:14.638Z,100291.09
2022-11-04T17:08:44.338Z,100292.75
2022-11-04T17:11:11.373Z,100295.28
2022-11-04T17:13:38.798Z,100303.09
2022-11-04T17:16:07.531Z,100308.38
2022-11-04T17:18:34.735Z,100311.81
2022-11-04T17:21:05.533Z,100312.72
2022-11-04T17:23:31.988Z,100318.78
2022-11-04T17:25:58.413Z,100325.88
2022-11-04T17:28:24.925Z,100326.91
2022-11-04T17:30:51.369Z,100328.72
2022-11-04T17:33:19.962Z,100330.53
2022-11-04T17:35:49.319Z,100339.16
2022-11-04T17:38:17.253Z,100338.16
2022-11-04T17:41:02.793Z,100343.31
2022-11-04T17:43:47.653Z,100347.63
2022-11-04T17:46:34.837Z,100350.34
2022-11-04T17:49:09.941Z,100358.16
2022-11-04T17:51:37.158Z,100360.72
2022-11-04T17:54:04.080Z,100371.19
2022-11-04T17:56:31.020Z,100372.13
2022-11-04T17:59:00.310Z,100377.47
2022-11-04T18:01:27.612Z,100370.56
2022-11-04T18:03:55.104Z,100378.53
2022-11-04T18:06:22.471Z,100383.72
2022-11-04T18:08:51.625Z,100382.91
2022-11-04T18:11:36.706Z,100373.47
2022-11-04T18:14:03.180Z,100381.44
2022-11-04T18:16:29.731Z,100382.34
2022-11-04T18:18:59.004Z,100397.28
2022-11-04T18:21:26.838Z,100389.56
2022-11-04T18:23:55.524Z,100395.81
2022-11-04T18:26:22.408Z,100401.00
2022-11-04T18:28:48.881Z,100403.56
2022-11-04T18:31:29.392Z,100400.16
2022-11-04T18:33:58.601Z,100407.13
2022-11-04T18:36:25.099Z,100405.41
2022-11-04T18:38:51.496Z,100399.41
2022-11-04T18:41:18.527Z,100407.31
2022-11-04T18:43:45.094Z,100394.25
2022-11-04T18:46:14.266Z,100405.75
2022-11-04T18:48:42.136Z,100401.41
2022-11-04T18:51:12.009Z,100414.38
2022-11-04T18:53:38.454Z,100417.06
2022-11-04T18:56:10.663Z,100435.50
2022-11-04T18:58:39.032Z,100432.06
2022-11-04T19:01:08.903Z,100436.53
2022-11-04T19:03:35.542Z,100436.50
2022-11-04T19:06:12.038Z,100431.22
2022-11-04T19:08:43.728Z,100433.00
2022-11-04T19:11:25.481Z,100432.91
2022-11-04T19:13:57.931Z,100441.63
2022-11-04T19:16:26.290Z,100435.56
2022-11-04T19:18:54.694Z,100435.78
2022-11-04T19:21:24.214Z,100433.31
2022-11-04T19:23:51.038Z,100443.69
2022-11-04T19:26:20.826Z,100451.50
2022-11-04T19:28:48.896Z,100450.78
2022-11-04T19:31:28.562Z,100459.56
2022-11-04T19:33:58.011Z,100456.00
2022-11-04T19:36:25.556Z,100465.59
2022-11-04T19:38:55.924Z,100457.69
2022-11-04T19:41:42.707Z,100456.78
2022-11-04T19:44:12.359Z,100470.75
2022-11-04T19:46:38.810Z,100469.91
2022-11-04T19:49:07.371Z,100474.28
2022-11-04T19:51:34.975Z,100489.13
2022-11-04T19:54:02.090Z,100482.22
2022-11-04T19:56:28.679Z,100484.16
2022-11-04T19:58:55.110Z,100488.50
2022-11-04T20:01:21.936Z,100488.44
2022-11-04T20:03:48.564Z,100481.38
2022-11-04T20:06:16.108Z,100484.81
2022-11-04T20:08:44.708Z,100491.66
2022-11-04T20:11:12.660Z,100496.88
2022-11-04T20:13:47.176Z,100507.25
2022-11-04T20:16:21.886Z,100509.88
2022-11-04T20:19:01.197Z,100515.19
2022-11-04T20:21:31.997Z,100517.03
2022-11-04T20:24:04.706Z,100523.09
2022-11-04T20:26:32.812Z,100526.47
2022-11-04T20:28:59.288Z,100533.44
2022-11-04T20:31:28.114Z,100541.25
2022-11-04T20:33:55.956Z,100543.88
2022-11-04T20:36:25.141Z,100544.81
2022-11-04T20:38:59.121Z,100562.31
2022-11-04T20:41:26.149Z,100558.03
2022-11-04T20:43:54.966Z,100565.00
2022-11-04T20:46:24.600Z,100564.25
2022-11-04T20:48:51.374Z,100573.78
2022-11-04T20:51:21.664Z,100579.84
2022-11-04T20:53:49.033Z,100582.50
2022-11-04T20:56:18.028Z,100593.81
2022-11-04T20:58:45.855Z,100592.94
2022-11-04T21:01:20.118Z,100597.31
2022-11-04T21:03:47.437Z,100602.56
2022-11-04T21:06:13.924Z,100609.53
2022-11-04T21:08:40.333Z,100620.88
2022-11-04T21:11:07.289Z,100610.56
2022-11-04T21:13:34.343Z,100620.03
2022-11-04T21:16:01.458Z,100630.44
2022-11-04T21:18:28.721Z,100625.09
2022-11-04T21:20:55.541Z,100624.22
2022-11-04T21:23:22.316Z,100627.63
2022-11-04T21:26:04.562Z,100628.50
2022-11-04T21:28:31.055Z,100634.50
2022-11-04T21:31:05.740Z,100637.06
2022-11-04T21:33:32.579Z,100644.03
2022-11-04T21:36:05.669Z,100647.50
2022-11-04T21:38:32.203Z,100651.06
2022-11-04T21:41:03.951Z,100654.56
2022-11-04T21:43:30.747Z,100659.78
2022-11-04T21:46:08.024Z,100665.88
2022-11-04T21:48:35.607Z,100657.16
2022-11-04T21:51:04.642Z,100666.81
2022-11-04T21:53:31.175Z,100670.28
2022-11-04T21:56:10.252Z,100672.09
2022-11-04T21:58:37.458Z,100676.50
2022-11-04T22:01:06.008Z,100684.31
2022-11-04T22:03:33.234Z,100673.19
2022-11-04T22:06:08.583Z,100677.66
2022-11-04T22:08:35.873Z,100671.63
2022-11-04T22:11:12.058Z,100682.13
2022-11-04T22:13:38.767Z,100680.34
2022-11-04T22:16:17.237Z,100696.91
2022-11-04T22:18:44.104Z,100692.59
2022-11-04T22:21:16.290Z,100693.44
2022-11-04T22:23:44.026Z,100690.03
2022-11-04T22:26:13.111Z,100687.41
2022-11-04T22:28:39.619Z,100697.00
2022-11-04T22:31:10.178Z,100690.94
2022-11-04T22:33:37.832Z,100692.66
2022-11-04T22:36:05.573Z,100697.88
2022-11-04T22:38:33.423Z,100699.59
2022-11-04T22:41:01.113Z,100700.44
2022-11-04T22:43:27.977Z,100697.91
2022-11-04T22:45:56.673Z,100701.38
2022-11-04T22:48:23.510Z,100705.69
2022-11-04T22:50:57.722Z,100700.53
2022-11-04T22:53:25.252Z,100703.19
2022-11-04T22:55:52.098Z,100707.56
2022-11-04T22:58:19.041Z,100709.28
2022-11-04T23:00:46.477Z,100711.06
2022-11-04T23:03:13.310Z,100713.63
2022-11-04T23:05:40.049Z,100710.19
2022-11-04T23:08:06.453Z,100713.66
2022-11-04T23:10:51.576Z,100718.06
2022-11-04T23:13:36.252Z,100714.63
2022-11-04T23:16:21.067Z,100717.31
2022-11-04T23:18:51.094Z,100718.28
2022-11-04T23:21:39.501Z,100727.06
2022-11-04T23:24:24.911Z,100726.25
2022-11-04T23:26:51.790Z,100728.91
2022-11-04T23:29:36.889Z,100720.22
2022-11-04T23:32:03.578Z,100721.16
2022-11-04T23:34:48.678Z,100728.94
2022-11-04T23:37:15.526Z,100735.06
2022-11-04T23:39:44.207Z,100735.13
2022-11-04T23:42:16.008Z,100738.63
2022-11-04T23:45:05.118Z,100733.41
2022-11-04T23:47:52.543Z,100729.94
2022-11-04T23:50:38.478Z,100728.19
2022-11-04T23:53:24.135Z,100730.84
2022-11-04T23:56:10.462Z,100737.81
2022-11-04T23:58:56.319Z,100748.28
